sensor_id;sensor_type;location;lat;lon;timestamp;P1;durP1;ratioP1;P2;durP2;ratioP2
5458;SDS011;2752;49.992;8.422;2023-01-08T00:00:04;9.40;;;5.80;;
5458;SDS011;2752;49.992;8.422;2023-01-08T00:02:31;12.00;;;7.47;;
5458;SDS011;2752;49.992;8.422;2023-01-08T00:04:59;10.43;;;6.07;;
5458;SDS011;2752;49.992;8.422;2023-01-08T00:07:26;10.83;;;6.17;;
5458;SDS011;2752;49.992;8.422;2023-01-08T00:09:53;17.37;;;6.80;;
5458;SDS011;2752;49.992;8.422;2023-01-08T00:12:19;10.80;;;5.80;;
5458;SDS011;2752;49.992;8.422;2023-01-08T00:14:46;9.17;;;6.13;;
5458;SDS011;2752;49.992;8.422;2023-01-08T00:17:13;11.50;;;6.40;;
5458;SDS011;2752;49.992;8.422;2023-01-08T00:19:39;12.63;;;5.90;;
5458;SDS011;2752;49.992;8.422;2023-01-08T00:22:08;10.27;;;6.17;;
5458;SDS011;2752;49.992;8.422;2023-01-08T00:24:35;9.07;;;5.10;;
5458;SDS011;2752;49.992;8.422;2023-01-08T00:27:02;8.27;;;4.97;;
5458;SDS011;2752;49.992;8.422;2023-01-08T00:29:28;9.20;;;5.07;;
5458;SDS011;2752;49.992;8.422;2023-01-08T00:31:55;8.07;;;5.10;;
5458;SDS011;2752;49.992;8.422;2023-01-08T00:34:21;9.00;;;4.87;;
5458;SDS011;2752;49.992;8.422;2023-01-08T00:36:48;9.60;;;4.93;;
5458;SDS011;2752;49.992;8.422;2023-01-08T00:39:16;8.53;;;4.43;;
5458;SDS011;2752;49.992;8.422;2023-01-08T00:41:43;9.93;;;4.40;;
5458;SDS011;2752;49.992;8.422;2023-01-08T00:44:09;5.67;;;3.67;;
5458;SDS011;2752;49.992;8.422;2023-01-08T00:46:36;7.60;;;3.60;;
5458;SDS011;2752;49.992;8.422;2023-01-08T00:49:03;5.20;;;3.80;;
5458;SDS011;2752;49.992;8.422;2023-01-08T00:51:29;13.40;;;3.70;;
5458;SDS011;2752;49.992;8.422;2023-01-08T00:53:56;4.97;;;3.40;;
5458;SDS011;2752;49.992;8.422;2023-01-08T00:56:24;7.10;;;3.80;;
5458;SDS011;2752;49.992;8.422;2023-01-08T00:58:51;6.70;;;3.43;;
5458;SDS011;2752;49.992;8.422;2023-01-08T01:01:17;7.70;;;3.47;;
5458;SDS011;2752;49.992;8.422;2023-01-08T01:03:44;6.03;;;3.37;;
5458;SDS011;2752;49.992;8.422;2023-01-08T01:06:11;8.40;;;3.53;;
5458;SDS011;2752;49.992;8.422;2023-01-08T01:08:39;6.40;;;2.90;;
5458;SDS011;2752;49.992;8.422;2023-01-08T01:11:06;3.90;;;2.80;;
5458;SDS011;2752;49.992;8.422;2023-01-08T01:13:34;5.97;;;3.20;;
5458;SDS011;2752;49.992;8.422;2023-01-08T01:16:01;5.90;;;3.57;;
5458;SDS011;2752;49.992;8.422;2023-01-08T01:18:29;4.67;;;3.50;;
5458;SDS011;2752;49.992;8.422;2023-01-08T01:20:56;11.20;;;3.80;;
5458;SDS011;2752;49.992;8.422;2023-01-08T01:23:22;8.50;;;3.83;;
5458;SDS011;2752;49.992;8.422;2023-01-08T01:25:49;7.07;;;3.70;;
5458;SDS011;2752;49.992;8.422;2023-01-08T01:28:16;7.70;;;4.70;;
5458;SDS011;2752;49.992;8.422;2023-01-08T01:30:44;7.83;;;4.30;;
5458;SDS011;2752;49.992;8.422;2023-01-08T01:33:10;9.10;;;4.27;;
5458;SDS011;2752;49.992;8.422;2023-01-08T01:35:37;7.73;;;4.83;;
5458;SDS011;2752;49.992;8.422;2023-01-08T01:38:03;10.67;;;5.20;;
5458;SDS011;2752;49.992;8.422;2023-01-08T01:40:30;8.40;;;5.77;;
5458;SDS011;2752;49.992;8.422;2023-01-08T01:42:57;7.93;;;5.07;;
5458;SDS011;2752;49.992;8.422;2023-01-08T01:45:24;9.20;;;5.00;;
5458;SDS011;2752;49.992;8.422;2023-01-08T01:47:54;9.17;;;5.20;;
5458;SDS011;2752;49.992;8.422;2023-01-08T01:50:25;10.90;;;5.50;;
5458;SDS011;2752;49.992;8.422;2023-01-08T01:52:55;8.07;;;4.67;;
5458;SDS011;2752;49.992;8.422;2023-01-08T01:55:26;5.97;;;4.80;;
5458;SDS011;2752;49.992;8.422;2023-01-08T01:57:56;12.30;;;4.50;;
5458;SDS011;2752;49.992;8.422;2023-01-08T02:00:27;8.10;;;4.70;;
5458;SDS011;2752;49.992;8.422;2023-01-08T02:02:56;9.40;;;5.10;;
5458;SDS011;2752;49.992;8.422;2023-01-08T02:05:23;8.90;;;5.00;;
5458;SDS011;2752;49.992;8.422;2023-01-08T02:07:56;8.40;;;4.70;;
5458;SDS011;2752;49.992;8.422;2023-01-08T02:10:30;11.20;;;4.90;;
5458;SDS011;2752;49.992;8.422;2023-01-08T02:13:04;8.97;;;4.67;;
5458;SDS011;2752;49.992;8.422;2023-01-08T02:15:40;8.63;;;5.47;;
5458;SDS011;2752;49.992;8.422;2023-01-08T02:18:16;8.60;;;4.70;;
5458;SDS011;2752;49.992;8.422;2023-01-08T02:20:45;9.13;;;5.10;;
5458;SDS011;2752;49.992;8.422;2023-01-08T02:23:20;10.20;;;5.43;;
5458;SDS011;2752;49.992;8.422;2023-01-08T02:28:46;8.00;;;5.10;;
5458;SDS011;2752;49.992;8.422;2023-01-08T02:31:16;10.70;;;6.20;;
5458;SDS011;2752;49.992;8.422;2023-01-08T02:33:44;11.03;;;5.10;;
5458;SDS011;2752;49.992;8.422;2023-01-08T02:36:16;14.97;;;6.30;;
5458;SDS011;2752;49.992;8.422;2023-01-08T02:38:52;8.53;;;5.77;;
5458;SDS011;2752;49.992;8.422;2023-01-08T02:41:31;9.23;;;5.50;;
5458;SDS011;2752;49.992;8.422;2023-01-08T02:44:04;8.40;;;5.77;;
5458;SDS011;2752;49.992;8.422;2023-01-08T02:46:33;9.17;;;6.30;;
5458;SDS011;2752;49.992;8.422;2023-01-08T02:49:03;14.60;;;6.73;;
5458;SDS011;2752;49.992;8.422;2023-01-08T02:51:34;15.73;;;6.47;;
5458;SDS011;2752;49.992;8.422;2023-01-08T02:54:06;10.13;;;6.50;;
5458;SDS011;2752;49.992;8.422;2023-01-08T02:56:39;14.63;;;7.10;;
5458;SDS011;2752;49.992;8.422;2023-01-08T02:59:09;11.50;;;6.57;;
5458;SDS011;2752;49.992;8.422;2023-01-08T03:01:38;10.00;;;5.80;;
5458;SDS011;2752;49.992;8.422;2023-01-08T03:04:06;12.90;;;6.23;;
5458;SDS011;2752;49.992;8.422;2023-01-08T03:06:37;12.03;;;6.80;;
5458;SDS011;2752;49.992;8.422;2023-01-08T03:09:04;13.95;;;6.80;;
5458;SDS011;2752;49.992;8.422;2023-01-08T03:11:32;11.33;;;6.40;;
5458;SDS011;2752;49.992;8.422;2023-01-08T03:14:06;12.80;;;6.67;;
5458;SDS011;2752;49.992;8.422;2023-01-08T03:16:36;15.33;;;6.53;;
5458;SDS011;2752;49.992;8.422;2023-01-08T03:19:07;17.00;;;6.20;;
5458;SDS011;2752;49.992;8.422;2023-01-08T03:21:37;14.97;;;7.47;;
5458;SDS011;2752;49.992;8.422;2023-01-08T03:24:06;13.57;;;7.30;;
5458;SDS011;2752;49.992;8.422;2023-01-08T03:26:35;9.97;;;6.40;;
5458;SDS011;2752;49.992;8.422;2023-01-08T03:29:05;15.90;;;7.93;;
5458;SDS011;2752;49.992;8.422;2023-01-08T03:31:36;13.20;;;7.23;;
5458;SDS011;2752;49.992;8.422;2023-01-08T03:34:05;15.57;;;7.80;;
5458;SDS011;2752;49.992;8.422;2023-01-08T03:36:32;14.27;;;7.40;;
5458;SDS011;2752;49.992;8.422;2023-01-08T03:39:04;13.93;;;8.43;;
5458;SDS011;2752;49.992;8.422;2023-01-08T03:41:35;12.60;;;8.03;;
5458;SDS011;2752;49.992;8.422;2023-01-08T03:44:02;14.57;;;7.43;;
5458;SDS011;2752;49.992;8.422;2023-01-08T03:46:31;13.60;;;7.60;;
5458;SDS011;2752;49.992;8.422;2023-01-08T03:49:00;13.60;;;8.47;;
5458;SDS011;2752;49.992;8.422;2023-01-08T03:51:36;13.17;;;7.00;;
5458;SDS011;2752;49.992;8.422;2023-01-08T03:54:04;12.27;;;7.67;;
5458;SDS011;2752;49.992;8.422;2023-01-08T03:56:34;12.43;;;7.00;;
5458;SDS011;2752;49.992;8.422;2023-01-08T03:59:00;14.83;;;8.13;;
5458;SDS011;2752;49.992;8.422;2023-01-08T04:01:27;12.07;;;7.80;;
5458;SDS011;2752;49.992;8.422;2023-01-08T04:03:55;22.23;;;9.17;;
5458;SDS011;2752;49.992;8.422;2023-01-08T04:06:21;17.03;;;7.60;;
5458;SDS011;2752;49.992;8.422;2023-01-08T04:08:48;15.83;;;7.33;;
5458;SDS011;2752;49.992;8.422;2023-01-08T04:11:15;11.20;;;6.73;;
5458;SDS011;2752;49.992;8.422;2023-01-08T04:13:42;10.07;;;6.80;;
5458;SDS011;2752;49.992;8.422;2023-01-08T04:16:08;14.63;;;8.40;;
5458;SDS011;2752;49.992;8.422;2023-01-08T04:18:35;12.87;;;8.03;;
5458;SDS011;2752;49.992;8.422;2023-01-08T04:21:03;14.67;;;8.60;;
5458;SDS011;2752;49.992;8.422;2023-01-08T04:23:30;16.87;;;8.60;;
5458;SDS011;2752;49.992;8.422;2023-01-08T04:25:56;12.90;;;7.33;;
5458;SDS011;2752;49.992;8.422;2023-01-08T04:28:23;13.70;;;8.10;;
5458;SDS011;2752;49.992;8.422;2023-01-08T04:30:49;17.93;;;8.70;;
5458;SDS011;2752;49.992;8.422;2023-01-08T04:33:16;15.20;;;7.47;;
5458;SDS011;2752;49.992;8.422;2023-01-08T04:35:43;13.10;;;8.17;;
5458;SDS011;2752;49.992;8.422;2023-01-08T04:38:11;15.50;;;7.60;;
5458;SDS011;2752;49.992;8.422;2023-01-08T04:40:37;10.27;;;6.60;;
5458;SDS011;2752;49.992;8.422;2023-01-08T04:43:04;14.40;;;8.60;;
5458;SDS011;2752;49.992;8.422;2023-01-08T04:45:30;11.37;;;6.77;;
5458;SDS011;2752;49.992;8.422;2023-01-08T04:47:57;11.93;;;7.20;;
5458;SDS011;2752;49.992;8.422;2023-01-08T04:50:24;12.17;;;6.93;;
5458;SDS011;2752;49.992;8.422;2023-01-08T04:52:52;13.33;;;7.90;;
5458;SDS011;2752;49.992;8.422;2023-01-08T04:55:20;13.20;;;7.47;;
5458;SDS011;2752;49.992;8.422;2023-01-08T04:57:46;10.27;;;6.67;;
5458;SDS011;2752;49.992;8.422;2023-01-08T05:00:13;11.90;;;7.50;;
5458;SDS011;2752;49.992;8.422;2023-01-08T05:02:40;10.53;;;6.47;;
5458;SDS011;2752;49.992;8.422;2023-01-08T05:05:07;12.27;;;8.43;;
5458;SDS011;2752;49.992;8.422;2023-01-08T05:07:34;13.03;;;6.87;;
5458;SDS011;2752;49.992;8.422;2023-01-08T05:10:01;14.60;;;8.23;;
5458;SDS011;2752;49.992;8.422;2023-01-08T05:12:29;12.43;;;7.20;;
5458;SDS011;2752;49.992;8.422;2023-01-08T05:14:55;16.93;;;7.80;;
5458;SDS011;2752;49.992;8.422;2023-01-08T05:17:22;16.80;;;7.63;;
5458;SDS011;2752;49.992;8.422;2023-01-08T05:19:48;13.33;;;7.70;;
5458;SDS011;2752;49.992;8.422;2023-01-08T05:22:15;12.80;;;7.30;;
5458;SDS011;2752;49.992;8.422;2023-01-08T05:24:41;13.33;;;7.40;;
5458;SDS011;2752;49.992;8.422;2023-01-08T05:27:08;13.67;;;7.30;;
5458;SDS011;2752;49.992;8.422;2023-01-08T05:29:36;12.60;;;7.00;;
5458;SDS011;2752;49.992;8.422;2023-01-08T05:32:03;16.53;;;7.87;;
5458;SDS011;2752;49.992;8.422;2023-01-08T05:34:31;14.63;;;8.57;;
5458;SDS011;2752;49.992;8.422;2023-01-08T05:36:58;13.10;;;7.30;;
5458;SDS011;2752;49.992;8.422;2023-01-08T05:39:24;10.23;;;7.13;;
5458;SDS011;2752;49.992;8.422;2023-01-08T05:41:51;15.70;;;8.57;;
5458;SDS011;2752;49.992;8.422;2023-01-08T05:44:17;11.33;;;7.00;;
5458;SDS011;2752;49.992;8.422;2023-01-08T05:46:45;14.50;;;7.33;;
5458;SDS011;2752;49.992;8.422;2023-01-08T05:49:12;13.60;;;8.00;;
5458;SDS011;2752;49.992;8.422;2023-01-08T05:51:39;18.17;;;8.43;;
5458;SDS011;2752;49.992;8.422;2023-01-08T05:54:05;11.70;;;7.70;;
5458;SDS011;2752;49.992;8.422;2023-01-08T05:56:32;13.93;;;8.47;;
5458;SDS011;2752;49.992;8.422;2023-01-08T05:58:59;16.33;;;8.10;;
5458;SDS011;2752;49.992;8.422;2023-01-08T06:01:25;19.40;;;9.37;;
5458;SDS011;2752;49.992;8.422;2023-01-08T06:03:54;18.20;;;7.60;;
5458;SDS011;2752;49.992;8.422;2023-01-08T06:06:22;12.87;;;7.70;;
5458;SDS011;2752;49.992;8.422;2023-01-08T06:08:49;11.43;;;7.33;;
5458;SDS011;2752;49.992;8.422;2023-01-08T06:11:16;15.73;;;7.93;;
5458;SDS011;2752;49.992;8.422;2023-01-08T06:13:43;11.13;;;7.30;;
5458;SDS011;2752;49.992;8.422;2023-01-08T06:16:09;18.60;;;8.37;;
5458;SDS011;2752;49.992;8.422;2023-01-08T06:18:36;12.90;;;7.80;;
5458;SDS011;2752;49.992;8.422;2023-01-08T06:21:05;14.00;;;9.10;;
5458;SDS011;2752;49.992;8.422;2023-01-08T06:23:32;12.77;;;8.00;;
5458;SDS011;2752;49.992;8.422;2023-01-08T06:25:59;24.17;;;7.77;;
5458;SDS011;2752;49.992;8.422;2023-01-08T06:28:28;14.13;;;7.60;;
5458;SDS011;2752;49.992;8.422;2023-01-08T06:30:55;12.00;;;7.77;;
5458;SDS011;2752;49.992;8.422;2023-01-08T06:33:22;11.77;;;6.43;;
5458;SDS011;2752;49.992;8.422;2023-01-08T06:35:49;13.60;;;7.20;;
5458;SDS011;2752;49.992;8.422;2023-01-08T06:38:17;12.93;;;7.40;;
5458;SDS011;2752;49.992;8.422;2023-01-08T06:40:43;16.03;;;7.33;;
5458;SDS011;2752;49.992;8.422;2023-01-08T06:43:10;11.50;;;7.90;;
5458;SDS011;2752;49.992;8.422;2023-01-08T06:45:37;11.40;;;7.13;;
5458;SDS011;2752;49.992;8.422;2023-01-08T06:48:05;10.23;;;6.80;;
5458;SDS011;2752;49.992;8.422;2023-01-08T06:50:32;11.93;;;7.10;;
5458;SDS011;2752;49.992;8.422;2023-01-08T06:52:59;10.60;;;7.17;;
5458;SDS011;2752;49.992;8.422;2023-01-08T06:55:27;11.40;;;7.13;;
5458;SDS011;2752;49.992;8.422;2023-01-08T06:57:54;11.53;;;7.33;;
5458;SDS011;2752;49.992;8.422;2023-01-08T07:00:22;12.20;;;7.33;;
5458;SDS011;2752;49.992;8.422;2023-01-08T07:02:50;13.90;;;6.60;;
5458;SDS011;2752;49.992;8.422;2023-01-08T07:05:17;12.70;;;6.80;;
5458;SDS011;2752;49.992;8.422;2023-01-08T07:07:44;12.63;;;7.10;;
5458;SDS011;2752;49.992;8.422;2023-01-08T07:10:10;11.97;;;7.23;;
5458;SDS011;2752;49.992;8.422;2023-01-08T07:12:38;12.43;;;6.53;;
5458;SDS011;2752;49.992;8.422;2023-01-08T07:15:06;17.80;;;8.37;;
5458;SDS011;2752;49.992;8.422;2023-01-08T07:17:33;11.50;;;6.23;;
5458;SDS011;2752;49.992;8.422;2023-01-08T07:20:00;15.67;;;7.40;;
5458;SDS011;2752;49.992;8.422;2023-01-08T07:22:27;10.87;;;6.83;;
5458;SDS011;2752;49.992;8.422;2023-01-08T07:24:53;9.97;;;6.10;;
5458;SDS011;2752;49.992;8.422;2023-01-08T07:27:20;11.17;;;6.23;;
5458;SDS011;2752;49.992;8.422;2023-01-08T07:29:48;10.80;;;6.60;;
5458;SDS011;2752;49.992;8.422;2023-01-08T07:32:15;17.90;;;7.80;;
5458;SDS011;2752;49.992;8.422;2023-01-08T07:34:41;10.13;;;6.00;;
5458;SDS011;2752;49.992;8.422;2023-01-08T07:37:08;8.60;;;5.83;;
5458;SDS011;2752;49.992;8.422;2023-01-08T07:39:35;11.17;;;6.27;;
5458;SDS011;2752;49.992;8.422;2023-01-08T07:42:01;11.33;;;6.83;;
5458;SDS011;2752;49.992;8.422;2023-01-08T07:44:28;12.47;;;5.70;;
5458;SDS011;2752;49.992;8.422;2023-01-08T07:46:56;9.13;;;5.80;;
5458;SDS011;2752;49.992;8.422;2023-01-08T07:49:23;10.40;;;6.53;;
5458;SDS011;2752;49.992;8.422;2023-01-08T07:51:49;12.47;;;5.47;;
5458;SDS011;2752;49.992;8.422;2023-01-08T07:54:16;9.40;;;5.27;;
5458;SDS011;2752;49.992;8.422;2023-01-08T07:56:43;10.53;;;6.20;;
5458;SDS011;2752;49.992;8.422;2023-01-08T07:59:09;12.27;;;5.53;;
5458;SDS011;2752;49.992;8.422;2023-01-08T08:01:36;9.93;;;5.43;;
5458;SDS011;2752;49.992;8.422;2023-01-08T08:04:04;10.13;;;6.40;;
5458;SDS011;2752;49.992;8.422;2023-01-08T08:06:31;8.30;;;5.47;;
5458;SDS011;2752;49.992;8.422;2023-01-08T08:08:57;12.47;;;6.33;;
5458;SDS011;2752;49.992;8.422;2023-01-08T08:11:24;12.33;;;5.67;;
5458;SDS011;2752;49.992;8.422;2023-01-08T08:13:50;9.17;;;5.63;;
5458;SDS011;2752;49.992;8.422;2023-01-08T08:16:20;13.17;;;5.50;;
5458;SDS011;2752;49.992;8.422;2023-01-08T08:18:49;9.40;;;5.83;;
5458;SDS011;2752;49.992;8.422;2023-01-08T08:21:21;9.63;;;5.40;;
5458;SDS011;2752;49.992;8.422;2023-01-08T08:23:53;10.83;;;5.60;;
5458;SDS011;2752;49.992;8.422;2023-01-08T08:26:20;8.83;;;4.90;;
5458;SDS011;2752;49.992;8.422;2023-01-08T08:28:46;12.50;;;5.70;;
5458;SDS011;2752;49.992;8.422;2023-01-08T08:31:13;7.50;;;4.57;;
5458;SDS011;2752;49.992;8.422;2023-01-08T08:33:40;6.90;;;5.07;;
5458;SDS011;2752;49.992;8.422;2023-01-08T08:36:07;8.37;;;5.17;;
5458;SDS011;2752;49.992;8.422;2023-01-08T08:38:37;8.87;;;5.10;;
5458;SDS011;2752;49.992;8.422;2023-01-08T08:41:04;10.47;;;5.27;;
5458;SDS011;2752;49.992;8.422;2023-01-08T08:43:31;8.93;;;5.13;;
5458;SDS011;2752;49.992;8.422;2023-01-08T08:45:57;7.37;;;4.63;;
5458;SDS011;2752;49.992;8.422;2023-01-08T08:48:24;9.13;;;5.53;;
5458;SDS011;2752;49.992;8.422;2023-01-08T08:50:51;8.93;;;5.60;;
5458;SDS011;2752;49.992;8.422;2023-01-08T08:53:17;11.93;;;4.90;;
5458;SDS011;2752;49.992;8.422;2023-01-08T08:55:45;9.57;;;4.80;;
5458;SDS011;2752;49.992;8.422;2023-01-08T08:58:12;6.40;;;4.17;;
5458;SDS011;2752;49.992;8.422;2023-01-08T09:00:40;7.87;;;4.30;;
5458;SDS011;2752;49.992;8.422;2023-01-08T09:03:08;9.40;;;4.60;;
5458;SDS011;2752;49.992;8.422;2023-01-08T09:05:37;6.43;;;4.53;;
5458;SDS011;2752;49.992;8.422;2023-01-08T09:08:04;6.47;;;4.30;;
5458;SDS011;2752;49.992;8.422;2023-01-08T09:10:31;8.30;;;4.20;;
5458;SDS011;2752;49.992;8.422;2023-01-08T09:12:59;7.60;;;3.80;;
5458;SDS011;2752;49.992;8.422;2023-01-08T09:15:26;7.50;;;4.47;;
5458;SDS011;2752;49.992;8.422;2023-01-08T09:17:53;12.13;;;4.10;;
5458;SDS011;2752;49.992;8.422;2023-01-08T09:20:20;7.23;;;4.03;;
5458;SDS011;2752;49.992;8.422;2023-01-08T09:22:47;6.60;;;3.67;;
5458;SDS011;2752;49.992;8.422;2023-01-08T09:25:14;14.13;;;4.33;;
5458;SDS011;2752;49.992;8.422;2023-01-08T09:27:41;7.03;;;4.20;;
5458;SDS011;2752;49.992;8.422;2023-01-08T09:30:09;6.60;;;3.87;;
5458;SDS011;2752;49.992;8.422;2023-01-08T09:32:36;8.63;;;3.47;;
5458;SDS011;2752;49.992;8.422;2023-01-08T09:35:03;8.37;;;4.57;;
5458;SDS011;2752;49.992;8.422;2023-01-08T09:37:30;7.50;;;4.60;;
5458;SDS011;2752;49.992;8.422;2023-01-08T09:39:57;4.70;;;3.13;;
5458;SDS011;2752;49.992;8.422;2023-01-08T09:42:24;6.43;;;3.70;;
5458;SDS011;2752;49.992;8.422;2023-01-08T09:44:54;5.70;;;3.47;;
5458;SDS011;2752;49.992;8.422;2023-01-08T09:47:25;7.13;;;4.40;;
5458;SDS011;2752;49.992;8.422;2023-01-08T09:49:54;9.70;;;3.83;;
5458;SDS011;2752;49.992;8.422;2023-01-08T09:52:25;5.27;;;3.17;;
5458;SDS011;2752;49.992;8.422;2023-01-08T09:54:52;7.73;;;4.00;;
5458;SDS011;2752;49.992;8.422;2023-01-08T09:57:19;9.13;;;4.07;;
5458;SDS011;2752;49.992;8.422;2023-01-08T09:59:47;6.70;;;4.27;;
5458;SDS011;2752;49.992;8.422;2023-01-08T10:02:15;5.43;;;3.67;;
5458;SDS011;2752;49.992;8.422;2023-01-08T10:04:44;5.70;;;4.10;;
5458;SDS011;2752;49.992;8.422;2023-01-08T10:07:16;7.10;;;4.60;;
5458;SDS011;2752;49.992;8.422;2023-01-08T10:09:46;7.53;;;4.13;;
5458;SDS011;2752;49.992;8.422;2023-01-08T10:12:14;13.23;;;4.60;;
5458;SDS011;2752;49.992;8.422;2023-01-08T10:14:44;10.17;;;3.77;;
5458;SDS011;2752;49.992;8.422;2023-01-08T10:17:16;8.23;;;3.47;;
5458;SDS011;2752;49.992;8.422;2023-01-08T10:19:50;5.33;;;4.00;;
5458;SDS011;2752;49.992;8.422;2023-01-08T10:22:18;5.50;;;3.83;;
5458;SDS011;2752;49.992;8.422;2023-01-08T10:24:47;6.33;;;4.20;;
5458;SDS011;2752;49.992;8.422;2023-01-08T10:27:14;16.23;;;4.70;;
5458;SDS011;2752;49.992;8.422;2023-01-08T10:29:42;8.40;;;4.10;;
5458;SDS011;2752;49.992;8.422;2023-01-08T10:32:12;9.07;;;4.43;;
5458;SDS011;2752;49.992;8.422;2023-01-08T10:34:41;9.73;;;4.57;;
5458;SDS011;2752;49.992;8.422;2023-01-08T10:37:15;7.10;;;4.20;;
5458;SDS011;2752;49.992;8.422;2023-01-08T10:39:48;8.10;;;4.57;;
5458;SDS011;2752;49.992;8.422;2023-01-08T10:42:15;6.10;;;4.67;;
5458;SDS011;2752;49.992;8.422;2023-01-08T10:44:46;8.83;;;4.73;;
5458;SDS011;2752;49.992;8.422;2023-01-08T10:47:19;4.73;;;3.60;;
5458;SDS011;2752;49.992;8.422;2023-01-08T10:49:47;5.70;;;3.83;;
5458;SDS011;2752;49.992;8.422;2023-01-08T10:52:28;6.20;;;4.10;;
5458;SDS011;2752;49.992;8.422;2023-01-08T10:54:57;7.17;;;4.30;;
5458;SDS011;2752;49.992;8.422;2023-01-08T10:57:35;6.30;;;4.07;;
5458;SDS011;2752;49.992;8.422;2023-01-08T11:00:20;12.27;;;4.13;;
5458;SDS011;2752;49.992;8.422;2023-01-08T11:02:48;10.63;;;4.53;;
5458;SDS011;2752;49.992;8.422;2023-01-08T11:05:15;9.23;;;4.70;;
5458;SDS011;2752;49.992;8.422;2023-01-08T11:07:43;5.63;;;4.23;;
5458;SDS011;2752;49.992;8.422;2023-01-08T11:10:20;4.97;;;3.70;;
5458;SDS011;2752;49.992;8.422;2023-01-08T11:12:53;10.10;;;3.80;;
5458;SDS011;2752;49.992;8.422;2023-01-08T11:18:10;9.17;;;3.53;;
5458;SDS011;2752;49.992;8.422;2023-01-08T11:20:42;7.80;;;3.60;;
5458;SDS011;2752;49.992;8.422;2023-01-08T11:23:15;5.90;;;3.60;;
5458;SDS011;2752;49.992;8.422;2023-01-08T11:25:47;5.50;;;3.60;;
5458;SDS011;2752;49.992;8.422;2023-01-08T11:28:23;5.03;;;3.77;;
5458;SDS011;2752;49.992;8.422;2023-01-08T11:30:57;13.10;;;3.70;;
5458;SDS011;2752;49.992;8.422;2023-01-08T11:33:30;5.77;;;3.93;;
5458;SDS011;2752;49.992;8.422;2023-01-08T11:36:02;4.90;;;3.43;;
5458;SDS011;2752;49.992;8.422;2023-01-08T11:38:36;5.00;;;3.80;;
5458;SDS011;2752;49.992;8.422;2023-01-08T11:41:05;6.80;;;3.47;;
5458;SDS011;2752;49.992;8.422;2023-01-08T11:43:42;4.43;;;2.90;;
5458;SDS011;2752;49.992;8.422;2023-01-08T11:46:25;6.80;;;3.50;;
5458;SDS011;2752;49.992;8.422;2023-01-08T11:49:11;4.40;;;3.67;;
5458;SDS011;2752;49.992;8.422;2023-01-08T11:52:01;4.67;;;3.10;;
5458;SDS011;2752;49.992;8.422;2023-01-08T11:54:40;5.97;;;3.70;;
5458;SDS011;2752;49.992;8.422;2023-01-08T11:57:27;4.13;;;3.10;;
5458;SDS011;2752;49.992;8.422;2023-01-08T12:00:07;6.70;;;3.03;;
5458;SDS011;2752;49.992;8.422;2023-01-08T12:02:48;5.53;;;3.03;;
5458;SDS011;2752;49.992;8.422;2023-01-08T12:05:24;4.50;;;2.90;;
5458;SDS011;2752;49.992;8.422;2023-01-08T12:08:01;6.63;;;3.53;;
5458;SDS011;2752;49.992;8.422;2023-01-08T12:10:47;7.80;;;3.07;;
5458;SDS011;2752;49.992;8.422;2023-01-08T12:13:27;8.13;;;3.20;;
5458;SDS011;2752;49.992;8.422;2023-01-08T12:16:08;7.07;;;3.97;;
5458;SDS011;2752;49.992;8.422;2023-01-08T12:18:47;3.80;;;2.73;;
5458;SDS011;2752;49.992;8.422;2023-01-08T12:21:27;4.53;;;3.10;;
5458;SDS011;2752;49.992;8.422;2023-01-08T12:24:04;4.30;;;2.53;;
5458;SDS011;2752;49.992;8.422;2023-01-08T12:26:43;3.80;;;2.70;;
5458;SDS011;2752;49.992;8.422;2023-01-08T12:29:18;5.40;;;3.27;;
5458;SDS011;2752;49.992;8.422;2023-01-08T12:31:58;4.30;;;3.20;;
5458;SDS011;2752;49.992;8.422;2023-01-08T12:34:48;6.57;;;2.90;;
5458;SDS011;2752;49.992;8.422;2023-01-08T12:37:22;4.97;;;2.23;;
5458;SDS011;2752;49.992;8.422;2023-01-08T12:39:54;2.90;;;2.10;;
5458;SDS011;2752;49.992;8.422;2023-01-08T12:42:27;2.50;;;1.87;;
5458;SDS011;2752;49.992;8.422;2023-01-08T12:44:56;4.00;;;2.50;;
5458;SDS011;2752;49.992;8.422;2023-01-08T12:47:26;4.80;;;2.47;;
5458;SDS011;2752;49.992;8.422;2023-01-08T12:49:59;3.90;;;2.40;;
5458;SDS011;2752;49.992;8.422;2023-01-08T12:52:41;4.77;;;2.50;;
5458;SDS011;2752;49.992;8.422;2023-01-08T12:55:16;3.23;;;2.47;;
5458;SDS011;2752;49.992;8.422;2023-01-08T12:57:58;6.27;;;2.43;;
5458;SDS011;2752;49.992;8.422;2023-01-08T13:00:32;2.27;;;1.87;;
5458;SDS011;2752;49.992;8.422;2023-01-08T13:03:04;3.60;;;2.43;;
5458;SDS011;2752;49.992;8.422;2023-01-08T13:05:38;11.20;;;2.13;;
5458;SDS011;2752;49.992;8.422;2023-01-08T13:08:18;2.30;;;1.90;;
5458;SDS011;2752;49.992;8.422;2023-01-08T13:10:51;1.70;;;1.43;;
5458;SDS011;2752;49.992;8.422;2023-01-08T13:13:25;2.50;;;1.70;;
5458;SDS011;2752;49.992;8.422;2023-01-08T13:16:04;3.40;;;1.90;;
5458;SDS011;2752;49.992;8.422;2023-01-08T13:18:49;1.83;;;1.50;;
5458;SDS011;2752;49.992;8.422;2023-01-08T13:21:17;1.70;;;1.40;;
5458;SDS011;2752;49.992;8.422;2023-01-08T13:23:58;2.83;;;1.67;;
5458;SDS011;2752;49.992;8.422;2023-01-08T13:26:27;2.30;;;1.53;;
5458;SDS011;2752;49.992;8.422;2023-01-08T13:29:05;2.60;;;1.77;;
5458;SDS011;2752;49.992;8.422;2023-01-08T13:31:47;4.97;;;1.40;;
5458;SDS011;2752;49.992;8.422;2023-01-08T13:34:18;3.43;;;1.50;;
5458;SDS011;2752;49.992;8.422;2023-01-08T13:36:56;8.83;;;2.53;;
5458;SDS011;2752;49.992;8.422;2023-01-08T13:39:30;3.33;;;1.67;;
5458;SDS011;2752;49.992;8.422;2023-01-08T13:41:59;1.57;;;1.47;;
5458;SDS011;2752;49.992;8.422;2023-01-08T13:44:33;1.83;;;1.43;;
5458;SDS011;2752;49.992;8.422;2023-01-08T13:47:05;1.80;;;1.40;;
5458;SDS011;2752;49.992;8.422;2023-01-08T13:49:42;2.60;;;1.73;;
5458;SDS011;2752;49.992;8.422;2023-01-08T13:52:25;3.50;;;1.20;;
5458;SDS011;2752;49.992;8.422;2023-01-08T13:54:54;4.20;;;1.80;;
5458;SDS011;2752;49.992;8.422;2023-01-08T13:57:21;2.27;;;1.70;;
5458;SDS011;2752;49.992;8.422;2023-01-08T13:59:50;2.67;;;1.57;;
5458;SDS011;2752;49.992;8.422;2023-01-08T14:02:24;2.57;;;1.57;;
5458;SDS011;2752;49.992;8.422;2023-01-08T14:04:53;2.10;;;1.57;;
5458;SDS011;2752;49.992;8.422;2023-01-08T14:07:20;4.80;;;1.80;;
5458;SDS011;2752;49.992;8.422;2023-01-08T14:09:48;3.10;;;1.80;;
5458;SDS011;2752;49.992;8.422;2023-01-08T14:12:16;6.03;;;1.63;;
5458;SDS011;2752;49.992;8.422;2023-01-08T14:14:46;2.37;;;1.57;;
5458;SDS011;2752;49.992;8.422;2023-01-08T14:17:17;4.67;;;1.90;;
5458;SDS011;2752;49.992;8.422;2023-01-08T14:19:45;3.20;;;2.10;;
5458;SDS011;2752;49.992;8.422;2023-01-08T14:22:15;2.97;;;2.23;;
5458;SDS011;2752;49.992;8.422;2023-01-08T14:24:44;1.70;;;1.50;;
5458;SDS011;2752;49.992;8.422;2023-01-08T14:27:19;3.70;;;2.20;;
5458;SDS011;2752;49.992;8.422;2023-01-08T14:29:47;2.70;;;1.57;;
5458;SDS011;2752;49.992;8.422;2023-01-08T14:32:15;2.23;;;1.33;;
5458;SDS011;2752;49.992;8.422;2023-01-08T14:34:44;4.67;;;2.13;;
5458;SDS011;2752;49.992;8.422;2023-01-08T14:37:13;3.00;;;1.83;;
5458;SDS011;2752;49.992;8.422;2023-01-08T14:39:40;2.27;;;1.70;;
5458;SDS011;2752;49.992;8.422;2023-01-08T14:42:09;3.83;;;1.97;;
5458;SDS011;2752;49.992;8.422;2023-01-08T14:45:00;2.90;;;1.97;;
5458;SDS011;2752;49.992;8.422;2023-01-08T14:47:32;2.93;;;1.90;;
5458;SDS011;2752;49.992;8.422;2023-01-08T14:50:03;1.60;;;1.50;;
5458;SDS011;2752;49.992;8.422;2023-01-08T14:52:31;4.10;;;2.10;;
5458;SDS011;2752;49.992;8.422;2023-01-08T14:54:59;1.80;;;1.60;;
5458;SDS011;2752;49.992;8.422;2023-01-08T14:57:28;3.60;;;2.13;;
5458;SDS011;2752;49.992;8.422;2023-01-08T14:59:55;2.27;;;1.90;;
5458;SDS011;2752;49.992;8.422;2023-01-08T15:02:26;2.90;;;2.00;;
5458;SDS011;2752;49.992;8.422;2023-01-08T15:05:01;2.60;;;1.53;;
5458;SDS011;2752;49.992;8.422;2023-01-08T15:07:29;1.80;;;1.60;;
5458;SDS011;2752;49.992;8.422;2023-01-08T15:09:56;2.50;;;1.70;;
5458;SDS011;2752;49.992;8.422;2023-01-08T15:12:25;2.97;;;2.07;;
5458;SDS011;2752;49.992;8.422;2023-01-08T15:14:54;4.07;;;1.90;;
5458;SDS011;2752;49.992;8.422;2023-01-08T15:17:22;3.27;;;1.70;;
5458;SDS011;2752;49.992;8.422;2023-01-08T15:19:54;5.63;;;2.43;;
5458;SDS011;2752;49.992;8.422;2023-01-08T15:22:24;3.60;;;2.00;;
5458;SDS011;2752;49.992;8.422;2023-01-08T15:24:54;11.20;;;2.80;;
5458;SDS011;2752;49.992;8.422;2023-01-08T15:27:23;3.23;;;2.07;;
5458;SDS011;2752;49.992;8.422;2023-01-08T15:29:51;2.00;;;1.80;;